SAS925 EKCH-KIAD
Flight info
| Callsign | SAS925 |
|---|---|
| Flight time | N/A |
| Altitude | 38000 |
| Route | LANGO P999 ALS P615 ASBIL L983 PETIL DCT REKNA DCT RIVOT DCT INBAS DCT GINGA/N0480F400 DCT AGORI DCT KESIX DCT SUNOT/M084F390 NATC HOIST/N0482F400 N750B YBC DCT IMORI DCT ALB HYPER9 |
| Aircraft | A359/H-SABDE1E3FGHIJ1J2J3J4J5M1P2RWXYZ/LB2D1 |
Departure
| Time | 2026-04-25 08:26 |
|---|---|
| Airport | Copenhagen Kastrup Airport (EKCH) |
Arrival
| Time | N/A |
|---|---|
| Airport | Washington Dulles International Airport (KIAD) |
| Time | Latitude | Longitude | Altitude | Speed | Heading |
|---|---|---|---|---|---|
| 2026-04-25 07:58 | 55.62432 | 12.65072 | 30 ft | 0 kts | 269° |
| 2026-04-25 08:13 | 55.62432 | 12.65083 | 30 ft | 4 kts | 269° |
| 2026-04-25 08:14 | 55.62433 | 12.65171 | 27 ft | 4 kts | 255° |
| 2026-04-25 08:14 | 55.62445 | 12.65199 | 26 ft | 4 kts | 184° |
| 2026-04-25 08:14 | 55.62469 | 12.65198 | 28 ft | 1 kts | 178° |
| 2026-04-25 08:14 | 55.62470 | 12.65198 | 28 ft | 4 kts | 178° |
| 2026-04-25 08:18 | 55.62468 | 12.65198 | 28 ft | 3 kts | 178° |
| 2026-04-25 08:18 | 55.62406 | 12.65203 | 28 ft | 12 kts | 178° |
| 2026-04-25 08:18 | 55.62315 | 12.65202 | 30 ft | 14 kts | 183° |
| 2026-04-25 08:19 | 55.62256 | 12.65212 | 30 ft | 0 kts | 165° |
| 2026-04-25 08:19 | 55.62246 | 12.65237 | 30 ft | 9 kts | 115° |
| 2026-04-25 08:19 | 55.62289 | 12.65384 | 30 ft | 16 kts | 73° |
| 2026-04-25 08:19 | 55.62297 | 12.65593 | 30 ft | 18 kts | 93° |
| 2026-04-25 08:20 | 55.62300 | 12.65824 | 30 ft | 20 kts | 87° |
| 2026-04-25 08:20 | 55.62316 | 12.66006 | 30 ft | 13 kts | 89° |
| 2026-04-25 08:20 | 55.62307 | 12.66064 | 30 ft | 0 kts | 118° |
| 2026-04-25 08:21 | 55.62279 | 12.66109 | 29 ft | 12 kts | 147° |
| 2026-04-25 08:21 | 55.62196 | 12.66182 | 29 ft | 15 kts | 159° |
| 2026-04-25 08:21 | 55.62096 | 12.66246 | 30 ft | 16 kts | 160° |
| 2026-04-25 08:21 | 55.61987 | 12.66316 | 30 ft | 18 kts | 161° |
| 2026-04-25 08:22 | 55.61870 | 12.66405 | 30 ft | 19 kts | 136° |
| 2026-04-25 08:22 | 55.61861 | 12.66625 | 30 ft | 19 kts | 78° |
| 2026-04-25 08:22 | 55.61886 | 12.66864 | 30 ft | 19 kts | 85° |
| 2026-04-25 08:22 | 55.61802 | 12.66995 | 30 ft | 18 kts | 164° |
| 2026-04-25 08:23 | 55.61673 | 12.67043 | 30 ft | 20 kts | 169° |
| 2026-04-25 08:23 | 55.61532 | 12.67089 | 30 ft | 22 kts | 168° |
| 2026-04-25 08:23 | 55.61378 | 12.67128 | 30 ft | 23 kts | 181° |
| 2026-04-25 08:23 | 55.61289 | 12.66989 | 31 ft | 17 kts | 277° |
| 2026-04-25 08:24 | 55.61329 | 12.66847 | 31 ft | 0 kts | 303° |
| 2026-04-25 08:25 | 55.61411 | 12.66632 | 30 ft | 52 kts | 304° |
| 2026-04-25 08:25 | 55.61718 | 12.65795 | 33 ft | 109 kts | 303° |
| 2026-04-25 08:26 | 55.62201 | 12.64437 | 150 ft | 145 kts | 300° |
| 2026-04-25 08:26 | 55.62706 | 12.62892 | 822 ft | 141 kts | 298° |
| 2026-04-25 08:26 | 55.63131 | 12.61364 | 1517 ft | 138 kts | 294° |
| 2026-04-25 08:26 | 55.63484 | 12.59808 | 2179 ft | 135 kts | 291° |
| 2026-04-25 08:27 | 55.63742 | 12.58241 | 2793 ft | 130 kts | 288° |
| 2026-04-25 08:27 | 55.64066 | 12.56702 | 3151 ft | 141 kts | 302° |
| 2026-04-25 08:27 | 55.64592 | 12.55104 | 3428 ft | 160 kts | 301° |
| 2026-04-25 08:27 | 55.65129 | 12.53252 | 3730 ft | 179 kts | 297° |
| 2026-04-25 08:28 | 55.65662 | 12.51115 | 3967 ft | 200 kts | 295° |
| 2026-04-25 08:28 | 55.66201 | 12.48714 | 4332 ft | 218 kts | 292° |
| 2026-04-25 08:28 | 55.66743 | 12.46156 | 4943 ft | 224 kts | 292° |
| 2026-04-25 08:28 | 55.67280 | 12.43553 | 5694 ft | 226 kts | 291° |
| 2026-04-25 08:29 | 55.67643 | 12.40822 | 6458 ft | 231 kts | 278° |
| 2026-04-25 08:29 | 55.67477 | 12.37946 | 7170 ft | 242 kts | 259° |
| 2026-04-25 08:29 | 55.66653 | 12.35259 | 7917 ft | 259 kts | 238° |
| 2026-04-25 08:29 | 55.65361 | 12.32951 | 8702 ft | 267 kts | 232° |
| 2026-04-25 08:30 | 55.63980 | 12.30729 | 9469 ft | 271 kts | 231° |
| 2026-04-25 08:30 | 55.62577 | 12.28464 | 10178 ft | 277 kts | 231° |
| 2026-04-25 08:30 | 55.61120 | 12.26074 | 10551 ft | 295 kts | 231° |
| 2026-04-25 08:30 | 55.59579 | 12.23531 | 10880 ft | 312 kts | 231° |
| 2026-04-25 08:31 | 55.57947 | 12.20842 | 11306 ft | 327 kts | 230° |
| 2026-04-25 08:31 | 55.56257 | 12.18069 | 11935 ft | 334 kts | 230° |
| 2026-04-25 08:31 | 55.54541 | 12.15262 | 12620 ft | 339 kts | 230° |
| 2026-04-25 08:31 | 55.52800 | 12.12413 | 13327 ft | 343 kts | 230° |
| 2026-04-25 08:32 | 55.51044 | 12.09541 | 14014 ft | 347 kts | 230° |
| 2026-04-25 08:32 | 55.49265 | 12.06631 | 14646 ft | 350 kts | 230° |
| 2026-04-25 08:32 | 55.47474 | 12.03701 | 15284 ft | 353 kts | 230° |
| 2026-04-25 08:32 | 55.45663 | 12.00743 | 15925 ft | 356 kts | 230° |
| 2026-04-25 08:33 | 55.43839 | 11.97768 | 16537 ft | 360 kts | 230° |
| 2026-04-25 08:33 | 55.41993 | 11.94759 | 17174 ft | 363 kts | 230° |
| 2026-04-25 08:33 | 55.40131 | 11.91729 | 17825 ft | 366 kts | 230° |
| 2026-04-25 08:33 | 55.38253 | 11.88675 | 18424 ft | 369 kts | 230° |
| 2026-04-25 08:34 | 55.36360 | 11.85602 | 18996 ft | 373 kts | 230° |
| 2026-04-25 08:34 | 55.34445 | 11.82497 | 19572 ft | 376 kts | 230° |
| 2026-04-25 08:34 | 55.32514 | 11.79371 | 20162 ft | 379 kts | 230° |
| 2026-04-25 08:34 | 55.30563 | 11.76217 | 20759 ft | 383 kts | 230° |
| 2026-04-25 08:35 | 55.28597 | 11.73042 | 21341 ft | 386 kts | 230° |
| 2026-04-25 08:35 | 55.26620 | 11.69831 | 21916 ft | 388 kts | 231° |
| 2026-04-25 08:35 | 55.24823 | 11.66346 | 22467 ft | 384 kts | 240° |
| 2026-04-25 08:35 | 55.23312 | 11.62500 | 23009 ft | 384 kts | 244° |
| 2026-04-25 08:36 | 55.21857 | 11.58536 | 23364 ft | 391 kts | 244° |
| 2026-04-25 08:36 | 55.20376 | 11.54490 | 23795 ft | 396 kts | 243° |
| 2026-04-25 08:36 | 55.18876 | 11.50421 | 24303 ft | 398 kts | 243° |
| 2026-04-25 08:36 | 55.17371 | 11.46351 | 24804 ft | 400 kts | 243° |
| 2026-04-25 08:37 | 55.15850 | 11.42250 | 25283 ft | 403 kts | 243° |
| 2026-04-25 08:37 | 55.14317 | 11.38126 | 25750 ft | 405 kts | 243° |
| 2026-04-25 08:37 | 55.12773 | 11.33983 | 26235 ft | 408 kts | 243° |
| 2026-04-25 08:37 | 55.11217 | 11.29813 | 26692 ft | 411 kts | 243° |
| 2026-04-25 08:38 | 55.09652 | 11.25624 | 27143 ft | 413 kts | 243° |
| 2026-04-25 08:38 | 55.08075 | 11.21415 | 27616 ft | 416 kts | 243° |
| 2026-04-25 08:38 | 55.06484 | 11.17174 | 28057 ft | 419 kts | 243° |
| 2026-04-25 08:38 | 55.04884 | 11.12916 | 28498 ft | 421 kts | 243° |
| 2026-04-25 08:39 | 55.03268 | 11.08623 | 28921 ft | 424 kts | 243° |
| 2026-04-25 08:39 | 55.01645 | 11.04319 | 29291 ft | 427 kts | 243° |
| 2026-04-25 08:39 | 54.99995 | 10.99947 | 29463 ft | 435 kts | 242° |
| 2026-04-25 08:39 | 54.98328 | 10.95541 | 29827 ft | 438 kts | 243° |
| 2026-04-25 08:40 | 54.96683 | 10.91067 | 30171 ft | 438 kts | 246° |
| 2026-04-25 08:40 | 54.95357 | 10.86319 | 30525 ft | 433 kts | 255° |
| 2026-04-25 08:40 | 54.94513 | 10.81341 | 30892 ft | 427 kts | 263° |
| 2026-04-25 08:40 | 54.94108 | 10.76312 | 31250 ft | 425 kts | 268° |
| 2026-04-25 08:41 | 54.93841 | 10.71188 | 31583 ft | 426 kts | 269° |
| 2026-04-25 08:41 | 54.93621 | 10.65978 | 31924 ft | 427 kts | 270° |
| 2026-04-25 08:41 | 54.93418 | 10.60813 | 32233 ft | 429 kts | 270° |
| 2026-04-25 08:41 | 54.93213 | 10.55697 | 32528 ft | 431 kts | 270° |
| 2026-04-25 08:42 | 54.92995 | 10.50497 | 32830 ft | 432 kts | 269° |
| 2026-04-25 08:42 | 54.92765 | 10.45276 | 33100 ft | 434 kts | 269° |
| 2026-04-25 08:42 | 54.92526 | 10.40038 | 33377 ft | 435 kts | 269° |
| 2026-04-25 08:42 | 54.92280 | 10.34781 | 33642 ft | 437 kts | 269° |
| 2026-04-25 08:43 | 54.92029 | 10.29522 | 34004 ft | 436 kts | 269° |
| 2026-04-25 08:43 | 54.91775 | 10.24281 | 34356 ft | 434 kts | 269° |
| 2026-04-25 08:43 | 54.91582 | 10.19056 | 34593 ft | 433 kts | 272° |
| 2026-04-25 08:43 | 54.91701 | 10.13844 | 34830 ft | 431 kts | 278° |
| 2026-04-25 08:44 | 54.92201 | 10.08728 | 35075 ft | 429 kts | 285° |
| 2026-04-25 08:44 | 54.93096 | 10.03797 | 35307 ft | 427 kts | 292° |
| 2026-04-25 08:44 | 54.94380 | 9.99139 | 35534 ft | 427 kts | 300° |
| 2026-04-25 08:44 | 54.96032 | 9.94844 | 35765 ft | 428 kts | 307° |
| 2026-04-25 08:45 | 54.98020 | 9.90991 | 35986 ft | 429 kts | 314° |
| 2026-04-25 08:45 | 55.00307 | 9.87652 | 36220 ft | 431 kts | 322° |
| 2026-04-25 08:45 | 55.02865 | 9.84886 | 36429 ft | 434 kts | 329° |
| 2026-04-25 08:45 | 55.05633 | 9.82768 | 36663 ft | 437 kts | 336° |
| 2026-04-25 08:46 | 55.08582 | 9.81341 | 36863 ft | 442 kts | 344° |
| 2026-04-25 08:46 | 55.11652 | 9.80666 | 37041 ft | 448 kts | 352° |
| 2026-04-25 08:46 | 55.14789 | 9.80790 | 37293 ft | 454 kts | 0° |
| 2026-04-25 08:46 | 55.17917 | 9.81741 | 37524 ft | 460 kts | 8° |
| 2026-04-25 08:47 | 55.20937 | 9.83500 | 37693 ft | 468 kts | 17° |
| 2026-04-25 08:47 | 55.23880 | 9.86028 | 37849 ft | 473 kts | 21° |
| 2026-04-25 08:47 | 55.26775 | 9.88801 | 37984 ft | 475 kts | 22° |
| 2026-04-25 08:48 | 55.32843 | 9.92902 | 37976 ft | 460 kts | 4° |
| 2026-04-25 08:48 | 55.35986 | 9.93433 | 37977 ft | 450 kts | 353° |
| 2026-04-25 08:48 | 55.39063 | 9.92881 | 38002 ft | 442 kts | 343° |
| 2026-04-25 08:48 | 55.42005 | 9.91274 | 37967 ft | 434 kts | 332° |
| 2026-04-25 08:49 | 55.44604 | 9.88795 | 37964 ft | 429 kts | 323° |
| 2026-04-25 08:49 | 55.48800 | 9.81508 | 37977 ft | 425 kts | 304° |
| 2026-04-25 08:50 | 55.51208 | 9.72017 | 37966 ft | 428 kts | 285° |
| 2026-04-25 08:50 | 55.51492 | 9.61475 | 37966 ft | 439 kts | 266° |
| 2026-04-25 08:51 | 55.49481 | 9.51177 | 37990 ft | 454 kts | 247° |
| 2026-04-25 08:51 | 55.47240 | 9.40954 | 37985 ft | 443 kts | 263° |
| 2026-04-25 08:52 | 55.47038 | 9.30330 | 38022 ft | 431 kts | 283° |
| 2026-04-25 08:52 | 55.48256 | 9.20014 | 38020 ft | 430 kts | 286° |
| 2026-04-25 08:53 | 55.49697 | 9.09792 | 38018 ft | 430 kts | 287° |
| 2026-04-25 08:53 | 55.51134 | 8.99559 | 38014 ft | 430 kts | 286° |
| 2026-04-25 08:54 | 55.52530 | 8.89297 | 38017 ft | 430 kts | 286° |
| 2026-04-25 08:54 | 55.53898 | 8.79054 | 38019 ft | 428 kts | 286° |
| 2026-04-25 08:55 | 55.55253 | 8.68817 | 38014 ft | 428 kts | 286° |
| 2026-04-25 08:55 | 55.56602 | 8.58572 | 38018 ft | 428 kts | 286° |
| 2026-04-25 08:56 | 55.57941 | 8.48332 | 38032 ft | 428 kts | 286° |
| 2026-04-25 08:56 | 55.59272 | 8.38079 | 38017 ft | 428 kts | 286° |
| 2026-04-25 08:57 | 55.60808 | 8.27956 | 38043 ft | 425 kts | 292° |
| 2026-04-25 08:57 | 55.62469 | 8.19796 | 38030 ft | 424 kts | 292° |
| 2026-04-25 08:58 | 55.64540 | 8.10024 | 38024 ft | 424 kts | 293° |
| 2026-04-25 08:58 | 55.66948 | 7.98655 | 38039 ft | 424 kts | 292° |
| 2026-04-25 08:59 | 55.68998 | 7.88864 | 38041 ft | 424 kts | 292° |
| 2026-04-25 08:59 | 55.70708 | 7.80650 | 38048 ft | 423 kts | 292° |
| 2026-04-25 09:00 | 55.72733 | 7.70878 | 38048 ft | 422 kts | 292° |
| 2026-04-25 09:00 | 55.74736 | 7.61168 | 38058 ft | 421 kts | 292° |
| 2026-04-25 09:01 | 55.76757 | 7.51331 | 38053 ft | 422 kts | 292° |
| 2026-04-25 09:01 | 55.78745 | 7.41603 | 38058 ft | 422 kts | 292° |
| 2026-04-25 09:02 | 55.80752 | 7.31734 | 38027 ft | 422 kts | 292° |
| 2026-04-25 09:02 | 55.82723 | 7.21989 | 38056 ft | 422 kts | 292° |
| 2026-04-25 09:03 | 55.84701 | 7.12166 | 38077 ft | 422 kts | 292° |
| 2026-04-25 09:03 | 55.86672 | 7.02330 | 38058 ft | 422 kts | 292° |
| 2026-04-25 09:04 | 55.88635 | 6.92480 | 38064 ft | 422 kts | 292° |
| 2026-04-25 09:04 | 55.90588 | 6.82633 | 38064 ft | 422 kts | 292° |
| 2026-04-25 09:05 | 55.92537 | 6.72762 | 38071 ft | 423 kts | 292° |
| 2026-04-25 09:05 | 55.94090 | 6.62605 | 38070 ft | 429 kts | 282° |
| 2026-04-25 09:06 | 55.94447 | 6.51915 | 38078 ft | 433 kts | 276° |
| 2026-04-25 09:06 | 55.94481 | 6.41154 | 38080 ft | 434 kts | 275° |
| 2026-04-25 09:07 | 55.94463 | 6.30368 | 38086 ft | 434 kts | 275° |
| 2026-04-25 09:07 | 55.94451 | 6.19591 | 38070 ft | 435 kts | 275° |
| 2026-04-25 09:08 | 55.94446 | 6.08848 | 38103 ft | 437 kts | 275° |
| 2026-04-25 09:08 | 55.94435 | 5.98031 | 38108 ft | 437 kts | 275° |
| 2026-04-25 09:09 | 55.94413 | 5.87180 | 38108 ft | 437 kts | 275° |
| 2026-04-25 09:09 | 55.94381 | 5.76344 | 38105 ft | 437 kts | 275° |
| 2026-04-25 09:10 | 55.94340 | 5.65503 | 38103 ft | 437 kts | 274° |
| 2026-04-25 09:10 | 55.94290 | 5.54640 | 38115 ft | 439 kts | 274° |
| 2026-04-25 09:11 | 55.94195 | 5.38278 | 38115 ft | 440 kts | 274° |
| 2026-04-25 09:11 | 55.94126 | 5.27359 | 38114 ft | 440 kts | 274° |
| 2026-04-25 09:12 | 55.94040 | 5.16436 | 38121 ft | 440 kts | 274° |
| 2026-04-25 09:12 | 55.93962 | 5.05527 | 38105 ft | 439 kts | 276° |
| 2026-04-25 09:13 | 55.94786 | 4.94871 | 38131 ft | 431 kts | 288° |
| 2026-04-25 09:13 | 55.96371 | 4.84547 | 38129 ft | 431 kts | 289° |
| 2026-04-25 09:14 | 55.98059 | 4.74288 | 38132 ft | 431 kts | 289° |
| 2026-04-25 09:14 | 55.99742 | 4.64015 | 38131 ft | 431 kts | 289° |
| 2026-04-25 09:15 | 56.01401 | 4.53723 | 38101 ft | 431 kts | 289° |
| 2026-04-25 09:15 | 56.03049 | 4.43394 | 38128 ft | 433 kts | 289° |
| 2026-04-25 09:16 | 56.04693 | 4.33011 | 38128 ft | 434 kts | 289° |
| 2026-04-25 09:16 | 56.06318 | 4.22688 | 38138 ft | 434 kts | 289° |
| 2026-04-25 09:17 | 56.08768 | 4.07010 | 38141 ft | 434 kts | 289° |
| 2026-04-25 09:18 | 56.10373 | 3.96665 | 38112 ft | 434 kts | 288° |
| 2026-04-25 09:18 | 56.11985 | 3.86207 | 38149 ft | 437 kts | 288° |
| 2026-04-25 09:19 | 56.13593 | 3.75706 | 38146 ft | 437 kts | 288° |
| 2026-04-25 09:19 | 56.15194 | 3.65184 | 38146 ft | 437 kts | 288° |
| 2026-04-25 09:20 | 56.16787 | 3.54647 | 38148 ft | 437 kts | 288° |
| 2026-04-25 09:20 | 56.18064 | 3.43956 | 38148 ft | 439 kts | 284° |
| 2026-04-25 09:21 | 56.19130 | 3.33127 | 38149 ft | 441 kts | 283° |
| 2026-04-25 09:21 | 56.20159 | 3.22250 | 38151 ft | 442 kts | 283° |
| 2026-04-25 09:22 | 56.21179 | 3.11360 | 38159 ft | 442 kts | 283° |
| 2026-04-25 09:22 | 56.22195 | 3.00452 | 38158 ft | 442 kts | 283° |
| 2026-04-25 09:23 | 56.23205 | 2.89537 | 38166 ft | 443 kts | 283° |
| 2026-04-25 09:23 | 56.24205 | 2.78622 | 38165 ft | 444 kts | 282° |
| 2026-04-25 09:24 | 56.25199 | 2.67665 | 38170 ft | 445 kts | 282° |
| 2026-04-25 09:24 | 56.26184 | 2.56676 | 38170 ft | 445 kts | 282° |
| 2026-04-25 09:25 | 56.27159 | 2.45688 | 38176 ft | 445 kts | 282° |
| 2026-04-25 09:25 | 56.28119 | 2.34764 | 38180 ft | 445 kts | 282° |
| 2026-04-25 09:26 | 56.29075 | 2.23760 | 38175 ft | 446 kts | 282° |
| 2026-04-25 09:26 | 56.30026 | 2.12713 | 38184 ft | 447 kts | 282° |
| 2026-04-25 09:26 | 56.30498 | 2.07172 | 38321 ft | 447 kts | 282° |
| 2026-04-25 09:27 | 56.30968 | 2.01637 | 38571 ft | 446 kts | 282° |
| 2026-04-25 09:27 | 56.31432 | 1.96128 | 38776 ft | 445 kts | 282° |
| 2026-04-25 09:27 | 56.31895 | 1.90606 | 38927 ft | 445 kts | 282° |
| 2026-04-25 09:27 | 56.32353 | 1.85112 | 39098 ft | 444 kts | 282° |
| 2026-04-25 09:28 | 56.32815 | 1.79542 | 39282 ft | 442 kts | 282° |
| 2026-04-25 09:28 | 56.33259 | 1.74151 | 39426 ft | 442 kts | 282° |
| 2026-04-25 09:28 | 56.33712 | 1.68650 | 39378 ft | 445 kts | 281° |
| 2026-04-25 09:29 | 56.34612 | 1.57597 | 39625 ft | 444 kts | 281° |
| 2026-04-25 09:29 | 56.35055 | 1.52094 | 39783 ft | 443 kts | 281° |
| 2026-04-25 09:29 | 56.35493 | 1.46618 | 39951 ft | 441 kts | 281° |
| 2026-04-25 09:29 | 56.35929 | 1.41148 | 40109 ft | 440 kts | 281° |
| 2026-04-25 09:30 | 56.36362 | 1.35687 | 40202 ft | 440 kts | 281° |
| 2026-04-25 09:30 | 56.37228 | 1.24693 | 40207 ft | 445 kts | 281° |
| 2026-04-25 09:31 | 56.38091 | 1.13592 | 40193 ft | 449 kts | 281° |
| 2026-04-25 09:31 | 56.38954 | 1.02355 | 40209 ft | 454 kts | 280° |
| 2026-04-25 09:32 | 56.39810 | 0.91050 | 40209 ft | 455 kts | 280° |
| 2026-04-25 09:32 | 56.40657 | 0.79720 | 40211 ft | 455 kts | 280° |
| 2026-04-25 09:33 | 56.41515 | 0.68406 | 40216 ft | 455 kts | 281° |
| 2026-04-25 09:33 | 56.42402 | 0.57097 | 40195 ft | 455 kts | 281° |
| 2026-04-25 09:34 | 56.43280 | 0.45765 | 40221 ft | 456 kts | 280° |
| 2026-04-25 09:34 | 56.44143 | 0.34404 | 40224 ft | 457 kts | 280° |
| 2026-04-25 09:35 | 56.44993 | 0.23030 | 40228 ft | 457 kts | 280° |
| 2026-04-25 09:35 | 56.45833 | 0.11652 | 40227 ft | 457 kts | 280° |
| 2026-04-25 09:36 | 56.46662 | 0.00265 | 40222 ft | 457 kts | 280° |
| 2026-04-25 09:36 | 56.47482 | -0.11132 | 40228 ft | 458 kts | 279° |
| 2026-04-25 09:37 | 56.48295 | -0.22578 | 40227 ft | 459 kts | 279° |
| 2026-04-25 09:37 | 56.49096 | -0.34028 | 40227 ft | 459 kts | 279° |
| 2026-04-25 09:38 | 56.49887 | -0.45489 | 40227 ft | 459 kts | 279° |
| 2026-04-25 09:38 | 56.50666 | -0.56912 | 40233 ft | 459 kts | 279° |
| 2026-04-25 09:39 | 56.51439 | -0.68422 | 40233 ft | 459 kts | 279° |
| 2026-04-25 09:39 | 56.52198 | -0.79894 | 40235 ft | 459 kts | 279° |
| 2026-04-25 09:40 | 56.53319 | -0.97129 | 40238 ft | 459 kts | 279° |
| 2026-04-25 09:40 | 56.54053 | -1.08623 | 40238 ft | 459 kts | 279° |
| 2026-04-25 09:41 | 56.54777 | -1.20120 | 40237 ft | 460 kts | 278° |
| 2026-04-25 09:41 | 56.55488 | -1.31592 | 40241 ft | 462 kts | 278° |
| 2026-04-25 09:42 | 56.56193 | -1.43155 | 40246 ft | 462 kts | 278° |
| 2026-04-25 09:42 | 56.56893 | -1.54814 | 40249 ft | 462 kts | 278° |
| 2026-04-25 09:43 | 56.57578 | -1.66416 | 40249 ft | 463 kts | 278° |
| 2026-04-25 09:43 | 56.58254 | -1.78024 | 40245 ft | 463 kts | 278° |
| 2026-04-25 09:44 | 56.58916 | -1.89601 | 40252 ft | 465 kts | 278° |
| 2026-04-25 09:44 | 56.59573 | -2.01274 | 40252 ft | 465 kts | 278° |
| 2026-04-25 09:45 | 56.60219 | -2.12960 | 40254 ft | 465 kts | 277° |
| 2026-04-25 09:45 | 56.60853 | -2.24648 | 40254 ft | 465 kts | 277° |
| 2026-04-25 09:46 | 56.61377 | -2.34446 | 40242 ft | 465 kts | 277° |
| 2026-04-25 09:46 | 56.61994 | -2.46167 | 40251 ft | 468 kts | 277° |
| 2026-04-25 09:47 | 56.62597 | -2.57861 | 40249 ft | 468 kts | 277° |
| 2026-04-25 09:47 | 56.63193 | -2.69624 | 40249 ft | 468 kts | 277° |
| 2026-04-25 09:48 | 56.63778 | -2.81400 | 40260 ft | 468 kts | 277° |
| 2026-04-25 09:48 | 56.64353 | -2.93190 | 40255 ft | 468 kts | 276° |
| 2026-04-25 09:49 | 56.64918 | -3.04994 | 40259 ft | 470 kts | 276° |
| 2026-04-25 09:49 | 56.65472 | -3.16838 | 40258 ft | 470 kts | 276° |
| 2026-04-25 09:50 | 56.66015 | -3.28683 | 40253 ft | 470 kts | 276° |
| 2026-04-25 09:50 | 56.66547 | -3.40531 | 40252 ft | 470 kts | 276° |
| 2026-04-25 09:51 | 56.67068 | -3.52390 | 40237 ft | 471 kts | 275° |
| 2026-04-25 09:51 | 56.67580 | -3.64284 | 40240 ft | 473 kts | 275° |
| 2026-04-25 09:52 | 56.68081 | -3.76218 | 40226 ft | 473 kts | 275° |
| 2026-04-25 09:52 | 56.68571 | -3.88152 | 40226 ft | 473 kts | 275° |
| 2026-04-25 09:53 | 56.69049 | -4.00091 | 40220 ft | 473 kts | 275° |
| 2026-04-25 09:53 | 56.69516 | -4.12029 | 40218 ft | 474 kts | 274° |
| 2026-04-25 09:54 | 56.69974 | -4.24022 | 40207 ft | 475 kts | 274° |
| 2026-04-25 09:54 | 56.70579 | -4.36000 | 40209 ft | 475 kts | 277° |
| 2026-04-25 09:55 | 56.71394 | -4.47928 | 40202 ft | 476 kts | 277° |
| 2026-04-25 09:55 | 56.72190 | -4.59887 | 40198 ft | 475 kts | 277° |
| 2026-04-25 09:56 | 56.72935 | -4.71847 | 40194 ft | 476 kts | 276° |
| 2026-04-25 09:56 | 56.73655 | -4.83884 | 40196 ft | 479 kts | 276° |
| 2026-04-25 09:57 | 56.74364 | -4.95967 | 40200 ft | 479 kts | 276° |
| 2026-04-25 09:57 | 56.75061 | -5.08032 | 40201 ft | 479 kts | 276° |
| 2026-04-25 09:58 | 56.75747 | -5.20095 | 40198 ft | 478 kts | 276° |
| 2026-04-25 09:58 | 56.76422 | -5.32158 | 40200 ft | 480 kts | 275° |
| 2026-04-25 09:59 | 56.77089 | -5.44294 | 40199 ft | 483 kts | 275° |
| 2026-04-25 09:59 | 56.77747 | -5.56481 | 40197 ft | 483 kts | 275° |
| 2026-04-25 10:00 | 56.78388 | -5.68587 | 40196 ft | 483 kts | 275° |
| 2026-04-25 10:00 | 56.79021 | -5.80769 | 40193 ft | 483 kts | 275° |
| 2026-04-25 10:01 | 56.79643 | -5.92982 | 40192 ft | 484 kts | 275° |
| 2026-04-25 10:01 | 56.80255 | -6.05228 | 40192 ft | 485 kts | 275° |
| 2026-04-25 10:02 | 56.80856 | -6.17502 | 40192 ft | 486 kts | 275° |
| 2026-04-25 10:02 | 56.81445 | -6.29774 | 40192 ft | 486 kts | 274° |
| 2026-04-25 10:03 | 56.82023 | -6.42064 | 40192 ft | 486 kts | 274° |
| 2026-04-25 10:03 | 56.82588 | -6.54349 | 40192 ft | 486 kts | 274° |
| 2026-04-25 10:04 | 56.83140 | -6.66634 | 40196 ft | 486 kts | 274° |
| 2026-04-25 10:04 | 56.83681 | -6.78921 | 40196 ft | 486 kts | 274° |
| 2026-04-25 10:05 | 56.84210 | -6.91214 | 40193 ft | 486 kts | 274° |
| 2026-04-25 10:05 | 56.84727 | -7.03517 | 40195 ft | 486 kts | 274° |
| 2026-04-25 10:06 | 56.85232 | -7.15837 | 40195 ft | 488 kts | 273° |
| 2026-04-25 10:06 | 56.85728 | -7.28221 | 40192 ft | 489 kts | 273° |
| 2026-04-25 10:07 | 56.86211 | -7.40604 | 40192 ft | 489 kts | 273° |
| 2026-04-25 10:07 | 56.86683 | -7.53009 | 40192 ft | 489 kts | 273° |
| 2026-04-25 10:08 | 56.87142 | -7.65406 | 40199 ft | 489 kts | 272° |
| 2026-04-25 10:08 | 56.87588 | -7.77832 | 40189 ft | 490 kts | 273° |
| 2026-04-25 10:09 | 56.88024 | -7.90268 | 40189 ft | 490 kts | 272° |
| 2026-04-25 10:09 | 56.88448 | -8.02713 | 40189 ft | 490 kts | 272° |
| 2026-04-25 10:10 | 56.88856 | -8.15076 | 40189 ft | 490 kts | 272° |
| 2026-04-25 10:10 | 56.89258 | -8.27609 | 40194 ft | 491 kts | 272° |
| 2026-04-25 10:11 | 56.89645 | -8.40100 | 40192 ft | 493 kts | 272° |
| 2026-04-25 10:11 | 56.90018 | -8.52536 | 40189 ft | 493 kts | 272° |
| 2026-04-25 10:12 | 56.90382 | -8.65067 | 40192 ft | 493 kts | 271° |
| 2026-04-25 10:13 | 56.90904 | -8.83864 | 40200 ft | 493 kts | 271° |
| 2026-04-25 10:13 | 56.91236 | -8.96416 | 40184 ft | 495 kts | 271° |
| 2026-04-25 10:14 | 56.91557 | -9.09006 | 40184 ft | 495 kts | 271° |
| 2026-04-25 10:14 | 56.91866 | -9.21603 | 40184 ft | 495 kts | 271° |
| 2026-04-25 10:15 | 56.92161 | -9.34205 | 40183 ft | 495 kts | 271° |
| 2026-04-25 10:15 | 56.92445 | -9.46802 | 40188 ft | 496 kts | 270° |
| 2026-04-25 10:16 | 56.92774 | -9.59421 | 40185 ft | 497 kts | 271° |
| 2026-04-25 10:16 | 56.93233 | -9.72057 | 40181 ft | 497 kts | 272° |
| 2026-04-25 10:17 | 56.93683 | -9.84604 | 40181 ft | 497 kts | 271° |
| 2026-04-25 10:17 | 56.94101 | -9.97237 | 40179 ft | 497 kts | 271° |
| 2026-04-25 10:18 | 56.94496 | -10.09880 | 40181 ft | 497 kts | 271° |
| 2026-04-25 10:18 | 56.94875 | -10.22535 | 40173 ft | 498 kts | 271° |
| 2026-04-25 10:19 | 56.95243 | -10.35196 | 40169 ft | 498 kts | 271° |
| 2026-04-25 10:19 | 56.95598 | -10.47876 | 40173 ft | 498 kts | 271° |
| 2026-04-25 10:20 | 56.95942 | -10.60564 | 40173 ft | 498 kts | 271° |
| 2026-04-25 10:20 | 56.96273 | -10.73248 | 40171 ft | 499 kts | 270° |
| 2026-04-25 10:21 | 56.96591 | -10.85952 | 40167 ft | 499 kts | 270° |
| 2026-04-25 10:21 | 56.96896 | -10.98658 | 40167 ft | 499 kts | 270° |
| 2026-04-25 10:22 | 56.97189 | -11.11370 | 40168 ft | 499 kts | 270° |
| 2026-04-25 10:22 | 56.97468 | -11.24086 | 40175 ft | 499 kts | 270° |
| 2026-04-25 10:23 | 56.97735 | -11.36802 | 40162 ft | 500 kts | 269° |
| 2026-04-25 10:23 | 56.97989 | -11.49530 | 40162 ft | 499 kts | 269° |
| 2026-04-25 10:24 | 56.98230 | -11.62261 | 40158 ft | 499 kts | 269° |
| 2026-04-25 10:24 | 56.98458 | -11.74979 | 40158 ft | 499 kts | 269° |
| 2026-04-25 10:25 | 56.98673 | -11.87713 | 40167 ft | 500 kts | 269° |
| 2026-04-25 10:25 | 56.98875 | -12.00484 | 40153 ft | 503 kts | 269° |
| 2026-04-25 10:26 | 56.99065 | -12.13298 | 40150 ft | 503 kts | 269° |
| 2026-04-25 10:26 | 56.99243 | -12.26122 | 40152 ft | 503 kts | 269° |
| 2026-04-25 10:27 | 56.99408 | -12.38951 | 40146 ft | 503 kts | 269° |
| 2026-04-25 10:27 | 56.99558 | -12.51683 | 40146 ft | 503 kts | 269° |
| 2026-04-25 10:28 | 56.99696 | -12.64496 | 40138 ft | 503 kts | 269° |
| 2026-04-25 10:28 | 56.99821 | -12.77312 | 40142 ft | 502 kts | 268° |
| 2026-04-25 10:29 | 56.99933 | -12.90136 | 40136 ft | 503 kts | 268° |
| 2026-04-25 10:29 | 56.99834 | -13.02938 | 40138 ft | 501 kts | 263° |
| 2026-04-25 10:30 | 56.99301 | -13.15671 | 40131 ft | 501 kts | 262° |
| 2026-04-25 10:30 | 56.98687 | -13.28400 | 40133 ft | 501 kts | 262° |
| 2026-04-25 10:31 | 56.98055 | -13.41121 | 40125 ft | 501 kts | 262° |
| 2026-04-25 10:31 | 56.97417 | -13.53843 | 40124 ft | 501 kts | 262° |
| 2026-04-25 10:32 | 56.96770 | -13.66555 | 40138 ft | 501 kts | 262° |
| 2026-04-25 10:32 | 56.96112 | -13.79259 | 40123 ft | 501 kts | 262° |
| 2026-04-25 10:33 | 56.95555 | -13.89816 | 40126 ft | 501 kts | 262° |
| 2026-04-25 10:33 | 56.95237 | -14.02568 | 40127 ft | 504 kts | 271° |
| 2026-04-25 10:34 | 56.95785 | -14.15380 | 40113 ft | 505 kts | 273° |
| 2026-04-25 10:34 | 56.96467 | -14.28174 | 40120 ft | 505 kts | 273° |
| 2026-04-25 10:35 | 56.97150 | -14.40987 | 40108 ft | 505 kts | 273° |
| 2026-04-25 10:35 | 56.97803 | -14.53803 | 40107 ft | 505 kts | 273° |
| 2026-04-25 10:36 | 56.98433 | -14.66602 | 40111 ft | 504 kts | 272° |
| 2026-04-25 10:36 | 56.99049 | -14.79417 | 40096 ft | 504 kts | 272° |
| 2026-04-25 10:37 | 56.99654 | -14.92245 | 40109 ft | 504 kts | 272° |
| 2026-04-25 10:37 | 57.01181 | -15.04800 | 40104 ft | 508 kts | 288° |
| 2026-04-25 10:38 | 57.03748 | -15.16918 | 40097 ft | 511 kts | 290° |
| 2026-04-25 10:38 | 57.06471 | -15.29000 | 40097 ft | 512 kts | 291° |
| 2026-04-25 10:39 | 57.09193 | -15.41099 | 40099 ft | 512 kts | 290° |
| 2026-04-25 10:39 | 57.11883 | -15.53230 | 40096 ft | 512 kts | 290° |
| 2026-04-25 10:40 | 57.14549 | -15.65379 | 40097 ft | 512 kts | 290° |
| 2026-04-25 10:40 | 57.17203 | -15.77549 | 40095 ft | 512 kts | 290° |
| 2026-04-25 10:41 | 57.19843 | -15.89728 | 40087 ft | 512 kts | 290° |
| 2026-04-25 10:41 | 57.22476 | -16.01943 | 40092 ft | 513 kts | 290° |
| 2026-04-25 10:42 | 57.25101 | -16.14186 | 40092 ft | 513 kts | 290° |
| 2026-04-25 10:42 | 57.27714 | -16.26452 | 40091 ft | 513 kts | 290° |
| 2026-04-25 10:43 | 57.30315 | -16.38736 | 40096 ft | 513 kts | 290° |
| 2026-04-25 10:43 | 57.32901 | -16.51021 | 40088 ft | 512 kts | 289° |
| 2026-04-25 10:44 | 57.35474 | -16.63318 | 40088 ft | 512 kts | 289° |
| 2026-04-25 10:44 | 57.38020 | -16.75561 | 40084 ft | 513 kts | 289° |
| 2026-04-25 10:45 | 57.40589 | -16.87988 | 40090 ft | 513 kts | 289° |
| 2026-04-25 10:45 | 57.43132 | -17.00368 | 40097 ft | 513 kts | 289° |
| 2026-04-25 10:46 | 57.45646 | -17.12682 | 40084 ft | 513 kts | 289° |
| 2026-04-25 10:46 | 57.48165 | -17.25096 | 40087 ft | 513 kts | 289° |
| 2026-04-25 10:47 | 57.50689 | -17.37609 | 40085 ft | 513 kts | 289° |
| 2026-04-25 10:47 | 57.53164 | -17.49965 | 40082 ft | 513 kts | 289° |
| 2026-04-25 10:48 | 57.55647 | -17.62432 | 40076 ft | 513 kts | 289° |
| 2026-04-25 10:48 | 57.58115 | -17.74902 | 40097 ft | 513 kts | 289° |
| 2026-04-25 10:49 | 57.60573 | -17.87406 | 40070 ft | 514 kts | 289° |
| 2026-04-25 10:49 | 57.63020 | -17.99930 | 40070 ft | 514 kts | 288° |
| 2026-04-25 10:50 | 57.65455 | -18.12474 | 40069 ft | 514 kts | 288° |
| 2026-04-25 10:50 | 57.67876 | -18.25024 | 40080 ft | 514 kts | 288° |
| 2026-04-25 10:51 | 57.70286 | -18.37603 | 40088 ft | 514 kts | 288° |
| 2026-04-25 10:51 | 57.72677 | -18.50157 | 40082 ft | 511 kts | 288° |
| 2026-04-25 10:52 | 57.75048 | -18.62692 | 40071 ft | 511 kts | 288° |
| 2026-04-25 10:52 | 57.77407 | -18.75249 | 40078 ft | 511 kts | 288° |
| 2026-04-25 10:53 | 57.79751 | -18.87806 | 40076 ft | 511 kts | 288° |
| 2026-04-25 10:53 | 57.82083 | -19.00382 | 40075 ft | 511 kts | 288° |
| 2026-04-25 10:54 | 57.84404 | -19.12981 | 40074 ft | 511 kts | 288° |
| 2026-04-25 10:54 | 57.86695 | -19.25499 | 40072 ft | 511 kts | 287° |
| 2026-04-25 10:55 | 57.88991 | -19.38135 | 40069 ft | 511 kts | 287° |
| 2026-04-25 10:55 | 57.91276 | -19.50785 | 40069 ft | 511 kts | 287° |
| 2026-04-25 10:56 | 57.93548 | -19.63457 | 40071 ft | 511 kts | 287° |
| 2026-04-25 10:56 | 57.95808 | -19.76146 | 40067 ft | 511 kts | 287° |
| 2026-04-25 10:57 | 57.98054 | -19.88845 | 40066 ft | 511 kts | 287° |
| 2026-04-25 10:57 | 58.00072 | -20.01651 | 40068 ft | 509 kts | 279° |
| 2026-04-25 10:58 | 58.01368 | -20.14762 | 40058 ft | 509 kts | 278° |
| 2026-04-25 10:58 | 58.02530 | -20.27928 | 40060 ft | 509 kts | 277° |
| 2026-04-25 10:59 | 58.03662 | -20.41111 | 40059 ft | 509 kts | 277° |
| 2026-04-25 10:59 | 58.04792 | -20.54303 | 40057 ft | 509 kts | 277° |
| 2026-04-25 11:00 | 58.05916 | -20.67496 | 40075 ft | 509 kts | 277° |
| 2026-04-25 11:00 | 58.07027 | -20.80693 | 40059 ft | 509 kts | 277° |
| 2026-04-25 11:01 | 58.08126 | -20.93914 | 40056 ft | 509 kts | 277° |
| 2026-04-25 11:01 | 58.09210 | -21.07135 | 40052 ft | 509 kts | 277° |
| 2026-04-25 11:02 | 58.10273 | -21.20271 | 40051 ft | 509 kts | 277° |
| 2026-04-25 11:02 | 58.11329 | -21.33500 | 40047 ft | 509 kts | 277° |
| 2026-04-25 11:03 | 58.12372 | -21.46751 | 40053 ft | 510 kts | 277° |
| 2026-04-25 11:03 | 58.13403 | -21.60021 | 40045 ft | 510 kts | 277° |
| 2026-04-25 11:04 | 58.14421 | -21.73309 | 40042 ft | 510 kts | 276° |
| 2026-04-25 11:04 | 58.15423 | -21.86591 | 40044 ft | 510 kts | 276° |
| 2026-04-25 11:05 | 58.16413 | -21.99896 | 40046 ft | 510 kts | 276° |
| 2026-04-25 11:05 | 58.17388 | -22.13195 | 40047 ft | 510 kts | 276° |
| 2026-04-25 11:06 | 58.18350 | -22.26501 | 40039 ft | 510 kts | 276° |
| 2026-04-25 11:06 | 58.19298 | -22.39822 | 40039 ft | 510 kts | 276° |
| 2026-04-25 11:07 | 58.20232 | -22.53140 | 40038 ft | 510 kts | 276° |
| 2026-04-25 11:07 | 58.21152 | -22.66469 | 40037 ft | 510 kts | 276° |
| 2026-04-25 11:08 | 58.22057 | -22.79793 | 40049 ft | 509 kts | 276° |
| 2026-04-25 11:08 | 58.22949 | -22.93141 | 40034 ft | 510 kts | 276° |
| 2026-04-25 11:09 | 58.23828 | -23.06498 | 40034 ft | 510 kts | 276° |
| 2026-04-25 11:09 | 58.24693 | -23.19868 | 40031 ft | 510 kts | 275° |
| 2026-04-25 11:10 | 58.25544 | -23.33240 | 40031 ft | 510 kts | 275° |
| 2026-04-25 11:10 | 58.26381 | -23.46614 | 40031 ft | 510 kts | 275° |
| 2026-04-25 11:11 | 58.27204 | -23.60007 | 40025 ft | 510 kts | 275° |
| 2026-04-25 11:11 | 58.28013 | -23.73401 | 40026 ft | 511 kts | 275° |
| 2026-04-25 11:12 | 58.28809 | -23.86820 | 40030 ft | 511 kts | 275° |
| 2026-04-25 11:12 | 58.29591 | -24.00236 | 40023 ft | 511 kts | 275° |
| 2026-04-25 11:13 | 58.30359 | -24.13659 | 40023 ft | 511 kts | 275° |
| 2026-04-25 11:13 | 58.31112 | -24.27087 | 40020 ft | 511 kts | 275° |
| 2026-04-25 11:14 | 58.31852 | -24.40517 | 40023 ft | 511 kts | 274° |
| 2026-04-25 11:14 | 58.32578 | -24.53967 | 40018 ft | 511 kts | 274° |
| 2026-04-25 11:15 | 58.33290 | -24.67419 | 40017 ft | 511 kts | 274° |
| 2026-04-25 11:15 | 58.33987 | -24.80873 | 40014 ft | 511 kts | 274° |
| 2026-04-25 11:16 | 58.35007 | -25.01072 | 40020 ft | 511 kts | 274° |
| 2026-04-25 11:16 | 58.35669 | -25.14531 | 40009 ft | 510 kts | 274° |
| 2026-04-25 11:17 | 58.36316 | -25.27986 | 40012 ft | 510 kts | 274° |
| 2026-04-25 11:17 | 58.36949 | -25.41432 | 40013 ft | 510 kts | 274° |
| 2026-04-25 11:18 | 58.37464 | -25.52618 | 40010 ft | 510 kts | 274° |
| 2026-04-25 11:18 | 58.38071 | -25.66087 | 40009 ft | 510 kts | 273° |
| 2026-04-25 11:19 | 58.38757 | -25.81726 | 40009 ft | 509 kts | 273° |
| 2026-04-25 11:19 | 58.39240 | -25.92984 | 40009 ft | 509 kts | 273° |
| 2026-04-25 11:20 | 58.39804 | -26.06444 | 40008 ft | 509 kts | 273° |
| 2026-04-25 11:20 | 58.40353 | -26.19894 | 40011 ft | 509 kts | 273° |
| 2026-04-25 11:21 | 58.40889 | -26.33354 | 40008 ft | 509 kts | 273° |
| 2026-04-25 11:21 | 58.41410 | -26.46824 | 40009 ft | 509 kts | 273° |
| 2026-04-25 11:22 | 58.41917 | -26.60291 | 39995 ft | 509 kts | 272° |
| 2026-04-25 11:22 | 58.42410 | -26.73766 | 40003 ft | 509 kts | 272° |
| 2026-04-25 11:23 | 58.42889 | -26.87233 | 39994 ft | 509 kts | 272° |
| 2026-04-25 11:23 | 58.43354 | -27.00721 | 40002 ft | 509 kts | 272° |
| 2026-04-25 11:24 | 58.43804 | -27.14188 | 40003 ft | 509 kts | 272° |
| 2026-04-25 11:24 | 58.44238 | -27.27610 | 39998 ft | 510 kts | 272° |
| 2026-04-25 11:25 | 58.44664 | -27.41217 | 39993 ft | 510 kts | 272° |
| 2026-04-25 11:25 | 58.45073 | -27.54739 | 39995 ft | 510 kts | 272° |
| 2026-04-25 11:26 | 58.45468 | -27.68272 | 40001 ft | 510 kts | 272° |
| 2026-04-25 11:26 | 58.45848 | -27.81797 | 39996 ft | 510 kts | 272° |
| 2026-04-25 11:27 | 58.46212 | -27.95244 | 39999 ft | 510 kts | 271° |
| 2026-04-25 11:27 | 58.46508 | -28.06573 | 39993 ft | 510 kts | 271° |
| 2026-04-25 11:28 | 58.46901 | -28.22302 | 39996 ft | 510 kts | 271° |
| 2026-04-25 11:28 | 58.47225 | -28.35835 | 39996 ft | 510 kts | 271° |
| 2026-04-25 11:29 | 58.47534 | -28.49369 | 39996 ft | 510 kts | 271° |
| 2026-04-25 11:29 | 58.47829 | -28.62911 | 39999 ft | 510 kts | 271° |
| 2026-04-25 11:30 | 58.48109 | -28.76440 | 39996 ft | 510 kts | 271° |
| 2026-04-25 11:30 | 58.48376 | -28.89985 | 39994 ft | 510 kts | 271° |
| 2026-04-25 11:31 | 58.48627 | -29.03519 | 39993 ft | 510 kts | 271° |
| 2026-04-25 11:31 | 58.48865 | -29.17052 | 39991 ft | 509 kts | 270° |
| 2026-04-25 11:32 | 58.49088 | -29.30579 | 40006 ft | 509 kts | 270° |
| 2026-04-25 11:32 | 58.49298 | -29.44116 | 39991 ft | 509 kts | 270° |
| 2026-04-25 11:33 | 58.49493 | -29.57644 | 39989 ft | 509 kts | 270° |
| 2026-04-25 11:33 | 58.49673 | -29.71187 | 39990 ft | 510 kts | 270° |
| 2026-04-25 11:34 | 58.49840 | -29.84741 | 39991 ft | 510 kts | 270° |
| 2026-04-25 11:34 | 58.49992 | -29.98282 | 39991 ft | 510 kts | 270° |
| 2026-04-25 11:35 | 58.50004 | -30.11833 | 39983 ft | 509 kts | 267° |
| 2026-04-25 11:35 | 58.49784 | -30.25344 | 39983 ft | 508 kts | 266° |
| 2026-04-25 11:36 | 58.49552 | -30.38849 | 39997 ft | 508 kts | 267° |
| 2026-04-25 11:36 | 58.49345 | -30.52361 | 39990 ft | 508 kts | 267° |
| 2026-04-25 11:37 | 58.49140 | -30.65860 | 39995 ft | 508 kts | 267° |
| 2026-04-25 11:37 | 58.48923 | -30.79368 | 39986 ft | 508 kts | 267° |
| 2026-04-25 11:38 | 58.48693 | -30.92790 | 39994 ft | 508 kts | 266° |
| 2026-04-25 11:38 | 58.48446 | -31.06289 | 39990 ft | 508 kts | 266° |
| 2026-04-25 11:39 | 58.48184 | -31.19794 | 39998 ft | 508 kts | 266° |
| 2026-04-25 11:39 | 58.47908 | -31.33300 | 39988 ft | 508 kts | 266° |
| 2026-04-25 11:40 | 58.47618 | -31.46793 | 40005 ft | 508 kts | 266° |
| 2026-04-25 11:40 | 58.47314 | -31.60284 | 39996 ft | 508 kts | 266° |
| 2026-04-25 11:41 | 58.46995 | -31.73785 | 39981 ft | 509 kts | 266° |
| 2026-04-25 11:41 | 58.46663 | -31.87275 | 39991 ft | 508 kts | 266° |
| 2026-04-25 11:42 | 58.46316 | -32.00756 | 39992 ft | 508 kts | 266° |
| 2026-04-25 11:42 | 58.45955 | -32.14255 | 39983 ft | 509 kts | 265° |
| 2026-04-25 11:43 | 58.45580 | -32.27749 | 39986 ft | 509 kts | 265° |
| 2026-04-25 11:43 | 58.45190 | -32.41235 | 39987 ft | 509 kts | 265° |
| 2026-04-25 11:44 | 58.44787 | -32.54720 | 39981 ft | 509 kts | 265° |
| 2026-04-25 11:44 | 58.44369 | -32.68194 | 39988 ft | 509 kts | 265° |
| 2026-04-25 11:45 | 58.43937 | -32.81673 | 39984 ft | 509 kts | 265° |
| 2026-04-25 11:45 | 58.43494 | -32.95055 | 39982 ft | 508 kts | 265° |
| 2026-04-25 11:46 | 58.43035 | -33.08515 | 39977 ft | 508 kts | 265° |
| 2026-04-25 11:46 | 58.42561 | -33.21972 | 39974 ft | 508 kts | 265° |
| 2026-04-25 11:47 | 58.42073 | -33.35428 | 39976 ft | 508 kts | 264° |
| 2026-04-25 11:47 | 58.41571 | -33.48883 | 39974 ft | 509 kts | 264° |
| 2026-04-25 11:48 | 58.41055 | -33.62333 | 39980 ft | 509 kts | 264° |
| 2026-04-25 11:48 | 58.40524 | -33.75786 | 39979 ft | 509 kts | 264° |
| 2026-04-25 11:49 | 58.39980 | -33.89231 | 39978 ft | 509 kts | 264° |
| 2026-04-25 11:49 | 58.39421 | -34.02671 | 39972 ft | 509 kts | 264° |
| 2026-04-25 11:50 | 58.38849 | -34.16113 | 39977 ft | 508 kts | 264° |
| 2026-04-25 11:50 | 58.38262 | -34.29539 | 39986 ft | 508 kts | 264° |
| 2026-04-25 11:51 | 58.37662 | -34.42953 | 39976 ft | 508 kts | 264° |
| 2026-04-25 11:51 | 58.37048 | -34.56366 | 39972 ft | 508 kts | 263° |
| 2026-04-25 11:52 | 58.36420 | -34.69761 | 39977 ft | 508 kts | 263° |
| 2026-04-25 11:52 | 58.35777 | -34.83174 | 39976 ft | 508 kts | 263° |
| 2026-04-25 11:53 | 58.35120 | -34.96584 | 39970 ft | 508 kts | 263° |
| 2026-04-25 11:53 | 58.34450 | -35.09980 | 39972 ft | 508 kts | 263° |
| 2026-04-25 11:54 | 58.33766 | -35.23361 | 39974 ft | 508 kts | 263° |
| 2026-04-25 11:55 | 58.32714 | -35.43427 | 39968 ft | 508 kts | 263° |
| 2026-04-25 11:55 | 58.31994 | -35.56803 | 39968 ft | 508 kts | 263° |
| 2026-04-25 11:56 | 58.31262 | -35.70159 | 39984 ft | 508 kts | 263° |
| 2026-04-25 11:56 | 58.30515 | -35.83516 | 39974 ft | 508 kts | 262° |
| 2026-04-25 11:57 | 58.29761 | -35.96761 | 39960 ft | 508 kts | 262° |
| 2026-04-25 11:57 | 58.28986 | -36.10108 | 39965 ft | 508 kts | 262° |
| 2026-04-25 11:58 | 58.28198 | -36.23441 | 39972 ft | 508 kts | 262° |
| 2026-04-25 11:58 | 58.27396 | -36.36779 | 39968 ft | 508 kts | 262° |
| 2026-04-25 11:59 | 58.26580 | -36.50103 | 39972 ft | 507 kts | 262° |
| 2026-04-25 11:59 | 58.25751 | -36.63408 | 39966 ft | 507 kts | 262° |
| 2026-04-25 12:00 | 58.24483 | -36.83347 | 39968 ft | 507 kts | 262° |
| 2026-04-25 12:01 | 58.23182 | -37.03276 | 39964 ft | 507 kts | 262° |
| 2026-04-25 12:01 | 58.22299 | -37.16546 | 39961 ft | 507 kts | 262° |
| 2026-04-25 12:02 | 58.20947 | -37.36452 | 39965 ft | 507 kts | 261° |
| 2026-04-25 12:02 | 58.20029 | -37.49716 | 39965 ft | 507 kts | 261° |
| 2026-04-25 12:03 | 58.19097 | -37.62968 | 39957 ft | 507 kts | 261° |
| 2026-04-25 12:03 | 58.18151 | -37.76215 | 39959 ft | 507 kts | 261° |
| 2026-04-25 12:04 | 58.17191 | -37.89453 | 39964 ft | 507 kts | 261° |
| 2026-04-25 12:04 | 58.16224 | -38.02604 | 39958 ft | 508 kts | 261° |
| 2026-04-25 12:05 | 58.15238 | -38.15827 | 39960 ft | 508 kts | 261° |
| 2026-04-25 12:05 | 58.14236 | -38.29061 | 39967 ft | 507 kts | 261° |
| 2026-04-25 12:06 | 58.13222 | -38.42270 | 39964 ft | 508 kts | 261° |
| 2026-04-25 12:06 | 58.12193 | -38.55484 | 39965 ft | 509 kts | 261° |
| 2026-04-25 12:07 | 58.11318 | -38.66576 | 39961 ft | 509 kts | 261° |
| 2026-04-25 12:07 | 58.10262 | -38.79811 | 39962 ft | 509 kts | 260° |
| 2026-04-25 12:08 | 58.09193 | -38.93025 | 39961 ft | 509 kts | 260° |
| 2026-04-25 12:08 | 58.08109 | -39.06243 | 39956 ft | 508 kts | 260° |
| 2026-04-25 12:09 | 58.07013 | -39.19433 | 39953 ft | 509 kts | 260° |
| 2026-04-25 12:09 | 58.05907 | -39.32572 | 39959 ft | 510 kts | 260° |
| 2026-04-25 12:10 | 58.04781 | -39.45778 | 39956 ft | 510 kts | 259° |
| 2026-04-25 12:10 | 58.03640 | -39.58989 | 39952 ft | 509 kts | 259° |
| 2026-04-25 12:11 | 58.02485 | -39.72197 | 39956 ft | 510 kts | 259° |
| 2026-04-25 12:11 | 58.01318 | -39.85386 | 39961 ft | 511 kts | 259° |
| 2026-04-25 12:12 | 58.00135 | -39.98590 | 39960 ft | 511 kts | 259° |
| 2026-04-25 12:12 | 57.99130 | -40.11856 | 39960 ft | 511 kts | 263° |
| 2026-04-25 12:13 | 57.98415 | -40.25193 | 39968 ft | 512 kts | 264° |
| 2026-04-25 12:13 | 57.97678 | -40.38538 | 39962 ft | 512 kts | 263° |
| 2026-04-25 12:14 | 57.96874 | -40.51859 | 39959 ft | 511 kts | 262° |
| 2026-04-25 12:14 | 57.96033 | -40.65154 | 39964 ft | 512 kts | 262° |
| 2026-04-25 12:15 | 57.95176 | -40.78434 | 39964 ft | 511 kts | 262° |
| 2026-04-25 12:15 | 57.94311 | -40.91636 | 39961 ft | 511 kts | 262° |
| 2026-04-25 12:16 | 57.93428 | -41.04934 | 39957 ft | 512 kts | 262° |
| 2026-04-25 12:16 | 57.92534 | -41.18200 | 39966 ft | 512 kts | 262° |
| 2026-04-25 12:17 | 57.91624 | -41.31474 | 39963 ft | 511 kts | 262° |
| 2026-04-25 12:17 | 57.90698 | -41.44761 | 39960 ft | 513 kts | 262° |
| 2026-04-25 12:18 | 57.89760 | -41.58035 | 39956 ft | 513 kts | 262° |
| 2026-04-25 12:18 | 57.88806 | -41.71324 | 39954 ft | 512 kts | 262° |
| 2026-04-25 12:19 | 57.87352 | -41.91203 | 39947 ft | 512 kts | 261° |
| 2026-04-25 12:20 | 57.86363 | -42.04473 | 39951 ft | 512 kts | 261° |
| 2026-04-25 12:20 | 57.85358 | -42.17769 | 39955 ft | 515 kts | 261° |
| 2026-04-25 12:21 | 57.84339 | -42.31063 | 39952 ft | 515 kts | 261° |
| 2026-04-25 12:21 | 57.83306 | -42.44354 | 39944 ft | 514 kts | 261° |
| 2026-04-25 12:22 | 57.82258 | -42.57644 | 39957 ft | 515 kts | 261° |
| 2026-04-25 12:22 | 57.81195 | -42.70939 | 39955 ft | 516 kts | 261° |
| 2026-04-25 12:23 | 57.80120 | -42.84205 | 39945 ft | 515 kts | 261° |
| 2026-04-25 12:23 | 57.79029 | -42.97492 | 39958 ft | 515 kts | 261° |
| 2026-04-25 12:24 | 57.77925 | -43.10762 | 39954 ft | 515 kts | 261° |
| 2026-04-25 12:24 | 57.76806 | -43.24021 | 39955 ft | 518 kts | 260° |
| 2026-04-25 12:25 | 57.75667 | -43.37350 | 39958 ft | 518 kts | 260° |
| 2026-04-25 12:25 | 57.74522 | -43.50586 | 39957 ft | 517 kts | 260° |
| 2026-04-25 12:26 | 57.73354 | -43.63909 | 39953 ft | 519 kts | 260° |
| 2026-04-25 12:26 | 57.72174 | -43.77216 | 39955 ft | 519 kts | 259° |
| 2026-04-25 12:27 | 57.70979 | -43.90526 | 39952 ft | 518 kts | 259° |
| 2026-04-25 12:27 | 57.69768 | -44.03832 | 39954 ft | 518 kts | 259° |
| 2026-04-25 12:28 | 57.68544 | -44.17127 | 39956 ft | 520 kts | 259° |
| 2026-04-25 12:28 | 57.67304 | -44.30443 | 39960 ft | 522 kts | 259° |
| 2026-04-25 12:29 | 57.66046 | -44.43777 | 39952 ft | 522 kts | 259° |
| 2026-04-25 12:29 | 57.64773 | -44.57121 | 39954 ft | 520 kts | 259° |
| 2026-04-25 12:30 | 57.63487 | -44.70440 | 39960 ft | 521 kts | 259° |
| 2026-04-25 12:30 | 57.62189 | -44.83732 | 39964 ft | 522 kts | 259° |
| 2026-04-25 12:31 | 57.60879 | -44.97014 | 39957 ft | 521 kts | 259° |
| 2026-04-25 12:31 | 57.59553 | -45.10288 | 39951 ft | 519 kts | 258° |
| 2026-04-25 12:32 | 57.58213 | -45.23538 | 39954 ft | 519 kts | 258° |
| 2026-04-25 12:32 | 57.56862 | -45.36773 | 39958 ft | 521 kts | 258° |
| 2026-04-25 12:33 | 57.55496 | -45.50017 | 39963 ft | 521 kts | 258° |
| 2026-04-25 12:33 | 57.54117 | -45.63229 | 39963 ft | 519 kts | 258° |
| 2026-04-25 12:34 | 57.52725 | -45.76421 | 39965 ft | 519 kts | 258° |
| 2026-04-25 12:34 | 57.51319 | -45.89611 | 39962 ft | 520 kts | 258° |
| 2026-04-25 12:35 | 57.49898 | -46.02798 | 39975 ft | 521 kts | 258° |
| 2026-04-25 12:35 | 57.48464 | -46.15957 | 39967 ft | 519 kts | 258° |
| 2026-04-25 12:36 | 57.47019 | -46.29093 | 39957 ft | 518 kts | 258° |
| 2026-04-25 12:36 | 57.45560 | -46.42231 | 39969 ft | 519 kts | 258° |
| 2026-04-25 12:37 | 57.44088 | -46.55354 | 39971 ft | 519 kts | 258° |
| 2026-04-25 12:37 | 57.42603 | -46.68459 | 39972 ft | 519 kts | 258° |
| 2026-04-25 12:38 | 57.41103 | -46.81551 | 39972 ft | 519 kts | 257° |
| 2026-04-25 12:38 | 57.39587 | -46.94657 | 39975 ft | 520 kts | 257° |
| 2026-04-25 12:39 | 57.38056 | -47.07776 | 39975 ft | 520 kts | 257° |
| 2026-04-25 12:39 | 57.36511 | -47.20875 | 39974 ft | 520 kts | 257° |
| 2026-04-25 12:40 | 57.34952 | -47.33964 | 39992 ft | 521 kts | 257° |
| 2026-04-25 12:40 | 57.33381 | -47.47035 | 39986 ft | 522 kts | 257° |
| 2026-04-25 12:41 | 57.31805 | -47.60030 | 39988 ft | 521 kts | 257° |
| 2026-04-25 12:41 | 57.30206 | -47.73076 | 39993 ft | 520 kts | 257° |
| 2026-04-25 12:42 | 57.28594 | -47.86123 | 39997 ft | 520 kts | 257° |
| 2026-04-25 12:42 | 57.26967 | -47.99164 | 39990 ft | 521 kts | 257° |
| 2026-04-25 12:43 | 57.25327 | -48.12192 | 40006 ft | 521 kts | 257° |
| 2026-04-25 12:43 | 57.22842 | -48.31711 | 39993 ft | 521 kts | 256° |
| 2026-04-25 12:44 | 57.21163 | -48.44748 | 40002 ft | 523 kts | 256° |
| 2026-04-25 12:45 | 57.18619 | -48.64288 | 40001 ft | 522 kts | 256° |
| 2026-04-25 12:45 | 57.16059 | -48.83690 | 39998 ft | 521 kts | 256° |
| 2026-04-25 12:46 | 57.14317 | -48.96754 | 40002 ft | 521 kts | 256° |
| 2026-04-25 12:46 | 57.12583 | -49.09638 | 40010 ft | 522 kts | 256° |
| 2026-04-25 12:47 | 57.10814 | -49.22672 | 40013 ft | 522 kts | 256° |
| 2026-04-25 12:47 | 57.09054 | -49.35533 | 40014 ft | 523 kts | 256° |
| 2026-04-25 12:48 | 57.07268 | -49.48476 | 40024 ft | 523 kts | 255° |
| 2026-04-25 12:48 | 57.05467 | -49.61403 | 40003 ft | 522 kts | 256° |
| 2026-04-25 12:49 | 57.03657 | -49.74300 | 40009 ft | 521 kts | 256° |
| 2026-04-25 12:49 | 57.01942 | -49.86425 | 40021 ft | 520 kts | 256° |
| 2026-04-25 12:50 | 57.00019 | -49.99238 | 40020 ft | 520 kts | 250° |
| 2026-04-25 12:50 | 56.97277 | -50.11506 | 40019 ft | 520 kts | 246° |
| 2026-04-25 12:51 | 56.94350 | -50.23627 | 40023 ft | 520 kts | 245° |
| 2026-04-25 12:51 | 56.91382 | -50.35729 | 40028 ft | 521 kts | 245° |
| 2026-04-25 12:52 | 56.88412 | -50.47831 | 40027 ft | 520 kts | 245° |
| 2026-04-25 12:52 | 56.85441 | -50.59919 | 40027 ft | 522 kts | 245° |
| 2026-04-25 12:53 | 56.82456 | -50.72005 | 40026 ft | 522 kts | 245° |
| 2026-04-25 12:53 | 56.79965 | -50.82041 | 40019 ft | 522 kts | 245° |
| 2026-04-25 12:54 | 56.76957 | -50.94100 | 40030 ft | 522 kts | 245° |
| 2026-04-25 12:54 | 56.73937 | -51.06134 | 40027 ft | 522 kts | 245° |
| 2026-04-25 12:55 | 56.71421 | -51.16110 | 40031 ft | 521 kts | 245° |
| 2026-04-25 12:55 | 56.67873 | -51.30108 | 40019 ft | 521 kts | 245° |
| 2026-04-25 12:56 | 56.64820 | -51.42079 | 40037 ft | 522 kts | 245° |
| 2026-04-25 12:56 | 56.61756 | -51.54032 | 40030 ft | 521 kts | 245° |
| 2026-04-25 12:57 | 56.58677 | -51.65979 | 40026 ft | 523 kts | 245° |
| 2026-04-25 12:57 | 56.55583 | -51.77917 | 40026 ft | 523 kts | 244° |
| 2026-04-25 12:58 | 56.52477 | -51.89839 | 40024 ft | 522 kts | 244° |
| 2026-04-25 12:58 | 56.49361 | -52.01738 | 40035 ft | 524 kts | 244° |
| 2026-04-25 12:59 | 56.46229 | -52.13634 | 40030 ft | 523 kts | 244° |
| 2026-04-25 12:59 | 56.43108 | -52.25423 | 40033 ft | 523 kts | 244° |
| 2026-04-25 13:00 | 56.40475 | -52.35325 | 40028 ft | 522 kts | 244° |
| 2026-04-25 13:00 | 56.36800 | -52.49072 | 40043 ft | 524 kts | 244° |
| 2026-04-25 13:01 | 56.33625 | -52.60880 | 40038 ft | 524 kts | 244° |
| 2026-04-25 13:01 | 56.30434 | -52.72687 | 40040 ft | 525 kts | 244° |
| 2026-04-25 13:02 | 56.27231 | -52.84480 | 40034 ft | 525 kts | 244° |
| 2026-04-25 13:02 | 56.24016 | -52.96254 | 40039 ft | 524 kts | 243° |
| 2026-04-25 13:03 | 56.20790 | -53.08007 | 40025 ft | 525 kts | 243° |
| 2026-04-25 13:03 | 56.17552 | -53.19744 | 40025 ft | 524 kts | 243° |
| 2026-04-25 13:04 | 56.14308 | -53.31442 | 40025 ft | 523 kts | 243° |
| 2026-04-25 13:04 | 56.11050 | -53.43130 | 40018 ft | 524 kts | 243° |
| 2026-04-25 13:05 | 56.07781 | -53.54799 | 40032 ft | 524 kts | 243° |
| 2026-04-25 13:05 | 56.04503 | -53.66444 | 40029 ft | 524 kts | 243° |
| 2026-04-25 13:06 | 56.01213 | -53.78069 | 40032 ft | 525 kts | 243° |
| 2026-04-25 13:06 | 55.97911 | -53.89682 | 40026 ft | 524 kts | 243° |
| 2026-04-25 13:07 | 55.94598 | -54.01271 | 40045 ft | 524 kts | 243° |
| 2026-04-25 13:07 | 55.91277 | -54.12833 | 40038 ft | 524 kts | 243° |
| 2026-04-25 13:08 | 55.87944 | -54.24380 | 40034 ft | 524 kts | 242° |
| 2026-04-25 13:08 | 55.84625 | -54.35822 | 40030 ft | 524 kts | 242° |
| 2026-04-25 13:09 | 55.81247 | -54.47408 | 40027 ft | 524 kts | 242° |
| 2026-04-25 13:09 | 55.77900 | -54.58831 | 40040 ft | 524 kts | 242° |
| 2026-04-25 13:10 | 55.74498 | -54.70386 | 40037 ft | 524 kts | 242° |
| 2026-04-25 13:10 | 55.71131 | -54.81761 | 40034 ft | 523 kts | 242° |
| 2026-04-25 13:11 | 55.67745 | -54.93155 | 40030 ft | 522 kts | 242° |
| 2026-04-25 13:11 | 55.64345 | -55.04536 | 40053 ft | 522 kts | 242° |
| 2026-04-25 13:12 | 55.60940 | -55.15882 | 40042 ft | 522 kts | 242° |
| 2026-04-25 13:12 | 55.58105 | -55.25286 | 40038 ft | 522 kts | 242° |
| 2026-04-25 13:13 | 55.54095 | -55.38521 | 40039 ft | 523 kts | 242° |
| 2026-04-25 13:13 | 55.50655 | -55.49813 | 40043 ft | 522 kts | 242° |
| 2026-04-25 13:14 | 55.47207 | -55.61082 | 40045 ft | 522 kts | 242° |
| 2026-04-25 13:14 | 55.43749 | -55.72329 | 40039 ft | 521 kts | 242° |
| 2026-04-25 13:15 | 55.40288 | -55.83533 | 40037 ft | 521 kts | 241° |
| 2026-04-25 13:15 | 55.36815 | -55.94726 | 40035 ft | 521 kts | 241° |
| 2026-04-25 13:16 | 55.33330 | -56.05904 | 40049 ft | 520 kts | 241° |
| 2026-04-25 13:16 | 55.29853 | -56.17002 | 40047 ft | 518 kts | 241° |
| 2026-04-25 13:17 | 55.26369 | -56.28073 | 40045 ft | 518 kts | 241° |
| 2026-04-25 13:17 | 55.22876 | -56.39118 | 40047 ft | 518 kts | 241° |
| 2026-04-25 13:18 | 55.19373 | -56.50148 | 40059 ft | 518 kts | 241° |
| 2026-04-25 13:18 | 55.15860 | -56.61156 | 40060 ft | 518 kts | 241° |
| 2026-04-25 13:19 | 55.12357 | -56.72083 | 40055 ft | 518 kts | 241° |
| 2026-04-25 13:19 | 55.09396 | -56.81281 | 40056 ft | 518 kts | 241° |
| 2026-04-25 13:20 | 55.05279 | -56.94014 | 40070 ft | 518 kts | 240° |
| 2026-04-25 13:20 | 55.01399 | -57.04607 | 40070 ft | 518 kts | 234° |
| 2026-04-25 13:21 | 54.97187 | -57.14809 | 40068 ft | 519 kts | 234° |
| 2026-04-25 13:21 | 54.92918 | -57.24933 | 40070 ft | 519 kts | 233° |
| 2026-04-25 13:22 | 54.88647 | -57.35025 | 40072 ft | 518 kts | 233° |
| 2026-04-25 13:23 | 54.82242 | -57.50129 | 40071 ft | 517 kts | 233° |
| 2026-04-25 13:23 | 54.77982 | -57.60134 | 40090 ft | 516 kts | 233° |
| 2026-04-25 13:24 | 54.73715 | -57.70116 | 40098 ft | 515 kts | 233° |
| 2026-04-25 13:24 | 54.69439 | -57.80077 | 40099 ft | 516 kts | 233° |
| 2026-04-25 13:25 | 54.65156 | -57.90012 | 40111 ft | 516 kts | 233° |
| 2026-04-25 13:25 | 54.60879 | -57.99895 | 40107 ft | 518 kts | 233° |
| 2026-04-25 13:26 | 54.56561 | -58.09835 | 40102 ft | 518 kts | 233° |
| 2026-04-25 13:26 | 54.52233 | -58.19757 | 40121 ft | 518 kts | 233° |
| 2026-04-25 13:27 | 54.47899 | -58.29653 | 40124 ft | 518 kts | 233° |
| 2026-04-25 13:27 | 54.43559 | -58.39523 | 40124 ft | 518 kts | 233° |
| 2026-04-25 13:28 | 54.39205 | -58.49384 | 40125 ft | 518 kts | 233° |
| 2026-04-25 13:28 | 54.34847 | -58.59218 | 40123 ft | 518 kts | 233° |
| 2026-04-25 13:29 | 54.30479 | -58.69033 | 40123 ft | 518 kts | 233° |
| 2026-04-25 13:29 | 54.26100 | -58.78836 | 40143 ft | 521 kts | 233° |
| 2026-04-25 13:30 | 54.19478 | -58.93587 | 40133 ft | 522 kts | 232° |
| 2026-04-25 13:31 | 54.12835 | -59.08296 | 40136 ft | 522 kts | 232° |
| 2026-04-25 13:31 | 54.08386 | -59.18099 | 40137 ft | 524 kts | 232° |
| 2026-04-25 13:32 | 54.03917 | -59.27907 | 40139 ft | 524 kts | 232° |
| 2026-04-25 13:32 | 53.99446 | -59.37682 | 40138 ft | 523 kts | 232° |
| 2026-04-25 13:33 | 53.94998 | -59.47369 | 40152 ft | 523 kts | 232° |
| 2026-04-25 13:33 | 53.90495 | -59.57136 | 40139 ft | 520 kts | 232° |
| 2026-04-25 13:34 | 53.86070 | -59.66698 | 40142 ft | 519 kts | 232° |
| 2026-04-25 13:34 | 53.81610 | -59.76298 | 40143 ft | 519 kts | 232° |
| 2026-04-25 13:35 | 53.77143 | -59.85876 | 40156 ft | 519 kts | 232° |
| 2026-04-25 13:35 | 53.72675 | -59.95420 | 40151 ft | 517 kts | 232° |
| 2026-04-25 13:36 | 53.68207 | -60.04926 | 40150 ft | 517 kts | 232° |
| 2026-04-25 13:36 | 53.63732 | -60.14413 | 40145 ft | 517 kts | 232° |
| 2026-04-25 13:37 | 53.59234 | -60.23911 | 40168 ft | 519 kts | 232° |
| 2026-04-25 13:37 | 53.54738 | -60.33370 | 40162 ft | 515 kts | 232° |
| 2026-04-25 13:38 | 53.50260 | -60.42754 | 40177 ft | 514 kts | 232° |
| 2026-04-25 13:38 | 53.45785 | -60.52099 | 40175 ft | 513 kts | 231° |
| 2026-04-25 13:39 | 53.41305 | -60.61418 | 40184 ft | 514 kts | 232° |
| 2026-04-25 13:39 | 53.36811 | -60.70732 | 40176 ft | 514 kts | 231° |
| 2026-04-25 13:40 | 53.32308 | -60.80030 | 40181 ft | 514 kts | 231° |
| 2026-04-25 13:40 | 53.27802 | -60.89301 | 40178 ft | 514 kts | 231° |
| 2026-04-25 13:41 | 53.23286 | -60.98556 | 40183 ft | 514 kts | 231° |
| 2026-04-25 13:41 | 53.18765 | -61.07787 | 40183 ft | 514 kts | 231° |
| 2026-04-25 13:42 | 53.14231 | -61.17012 | 40181 ft | 514 kts | 231° |
| 2026-04-25 13:42 | 53.10466 | -61.24646 | 40181 ft | 514 kts | 231° |
| 2026-04-25 13:43 | 53.05919 | -61.33836 | 40180 ft | 514 kts | 231° |
| 2026-04-25 13:43 | 53.00627 | -61.44487 | 40172 ft | 515 kts | 231° |
| 2026-04-25 13:44 | 52.96059 | -61.53648 | 40179 ft | 514 kts | 231° |
| 2026-04-25 13:44 | 52.92238 | -61.61282 | 40179 ft | 513 kts | 231° |
| 2026-04-25 13:45 | 52.87675 | -61.70369 | 40179 ft | 513 kts | 231° |
| 2026-04-25 13:45 | 52.83103 | -61.79442 | 40178 ft | 513 kts | 231° |
| 2026-04-25 13:46 | 52.78524 | -61.88494 | 40180 ft | 513 kts | 231° |
| 2026-04-25 13:46 | 52.73972 | -61.97463 | 40179 ft | 513 kts | 230° |
| 2026-04-25 13:47 | 52.69381 | -62.06476 | 40189 ft | 513 kts | 230° |
| 2026-04-25 13:47 | 52.64782 | -62.15471 | 40187 ft | 513 kts | 230° |
| 2026-04-25 13:48 | 52.60178 | -62.24444 | 40187 ft | 513 kts | 230° |
| 2026-04-25 13:48 | 52.55570 | -62.33394 | 40181 ft | 513 kts | 230° |
| 2026-04-25 13:49 | 52.50949 | -62.42335 | 40180 ft | 513 kts | 230° |
| 2026-04-25 13:49 | 52.46298 | -62.51305 | 40194 ft | 512 kts | 230° |
| 2026-04-25 13:50 | 52.41709 | -62.60121 | 40190 ft | 512 kts | 230° |
| 2026-04-25 13:50 | 52.37083 | -62.68980 | 40189 ft | 512 kts | 230° |
| 2026-04-25 13:51 | 52.32448 | -62.77823 | 40171 ft | 512 kts | 230° |
| 2026-04-25 13:51 | 52.27806 | -62.86650 | 40182 ft | 512 kts | 230° |
| 2026-04-25 13:52 | 52.23157 | -62.95457 | 40181 ft | 512 kts | 230° |
| 2026-04-25 13:52 | 52.18504 | -63.04242 | 40181 ft | 512 kts | 230° |
| 2026-04-25 13:53 | 52.13839 | -63.13019 | 40182 ft | 512 kts | 230° |
| 2026-04-25 13:53 | 52.09176 | -63.21761 | 40182 ft | 511 kts | 230° |
| 2026-04-25 13:54 | 52.04516 | -63.30467 | 40178 ft | 510 kts | 229° |
| 2026-04-25 13:54 | 51.99853 | -63.39150 | 40178 ft | 510 kts | 229° |
| 2026-04-25 13:55 | 51.95184 | -63.47813 | 40178 ft | 510 kts | 229° |
| 2026-04-25 13:55 | 51.90511 | -63.56453 | 40182 ft | 510 kts | 229° |
| 2026-04-25 13:56 | 51.85835 | -63.65072 | 40182 ft | 509 kts | 229° |
| 2026-04-25 13:56 | 51.81154 | -63.73669 | 40182 ft | 509 kts | 229° |
| 2026-04-25 13:57 | 51.76463 | -63.82253 | 40178 ft | 509 kts | 229° |
| 2026-04-25 13:57 | 51.71765 | -63.90822 | 40181 ft | 510 kts | 229° |
| 2026-04-25 13:58 | 51.67053 | -63.99389 | 40183 ft | 511 kts | 229° |
| 2026-04-25 13:58 | 51.62336 | -64.07935 | 40191 ft | 510 kts | 229° |
| 2026-04-25 13:59 | 51.57614 | -64.16460 | 40188 ft | 510 kts | 229° |
| 2026-04-25 13:59 | 51.52910 | -64.24924 | 40180 ft | 511 kts | 229° |
| 2026-04-25 14:00 | 51.48165 | -64.33434 | 40174 ft | 512 kts | 229° |
| 2026-04-25 14:00 | 51.43414 | -64.41925 | 40176 ft | 511 kts | 229° |
| 2026-04-25 14:01 | 51.38663 | -64.50388 | 40175 ft | 510 kts | 229° |
| 2026-04-25 14:01 | 51.33922 | -64.58805 | 40174 ft | 508 kts | 228° |
| 2026-04-25 14:02 | 51.29155 | -64.67242 | 40167 ft | 508 kts | 229° |
| 2026-04-25 14:02 | 51.24412 | -64.75606 | 40163 ft | 508 kts | 228° |
| 2026-04-25 14:03 | 51.19693 | -64.83898 | 40165 ft | 509 kts | 229° |
| 2026-04-25 14:03 | 51.14925 | -64.92251 | 40160 ft | 510 kts | 228° |
| 2026-04-25 14:04 | 51.10150 | -65.00590 | 40160 ft | 509 kts | 228° |
| 2026-04-25 14:04 | 51.05375 | -65.08901 | 40161 ft | 509 kts | 228° |
| 2026-04-25 14:05 | 51.00588 | -65.17203 | 40154 ft | 509 kts | 229° |
| 2026-04-25 14:05 | 50.95799 | -65.25483 | 40155 ft | 509 kts | 229° |
| 2026-04-25 14:06 | 50.91007 | -65.33742 | 40152 ft | 509 kts | 228° |
| 2026-04-25 14:06 | 50.86203 | -65.41992 | 40155 ft | 509 kts | 228° |
| 2026-04-25 14:07 | 50.81395 | -65.50224 | 40148 ft | 509 kts | 228° |
| 2026-04-25 14:07 | 50.76588 | -65.58428 | 40148 ft | 509 kts | 228° |
| 2026-04-25 14:08 | 50.71778 | -65.66610 | 40133 ft | 508 kts | 228° |
| 2026-04-25 14:08 | 50.66988 | -65.74730 | 40124 ft | 509 kts | 228° |
| 2026-04-25 14:09 | 50.62121 | -65.82956 | 40130 ft | 511 kts | 228° |
| 2026-04-25 14:09 | 50.57302 | -65.91074 | 40118 ft | 511 kts | 228° |
| 2026-04-25 14:10 | 50.52446 | -65.99227 | 40111 ft | 511 kts | 228° |
| 2026-04-25 14:10 | 50.47586 | -66.07362 | 40117 ft | 509 kts | 227° |
| 2026-04-25 14:11 | 50.42752 | -66.15425 | 40116 ft | 505 kts | 227° |
| 2026-04-25 14:11 | 50.37937 | -66.23432 | 40118 ft | 505 kts | 227° |
| 2026-04-25 14:12 | 50.33112 | -66.31431 | 40133 ft | 506 kts | 227° |
| 2026-04-25 14:12 | 50.28262 | -66.39446 | 40125 ft | 506 kts | 227° |
| 2026-04-25 14:13 | 50.23433 | -66.47400 | 40127 ft | 503 kts | 227° |
| 2026-04-25 14:13 | 50.18609 | -66.55321 | 40125 ft | 503 kts | 227° |